sensor_id;sensor_type;location;lat;lon;timestamp;P1;durP1;ratioP1;P2;durP2;ratioP2
51006;SDS011;37034;47.886;-3.904;2023-04-21T00:00:56;16.70;;;2.67;;
51006;SDS011;37034;47.886;-3.904;2023-04-21T00:03:23;13.23;;;2.75;;
51006;SDS011;37034;47.886;-3.904;2023-04-21T00:08:15;12.88;;;2.45;;
51006;SDS011;37034;47.886;-3.904;2023-04-21T00:10:41;14.75;;;2.45;;
51006;SDS011;37034;47.886;-3.904;2023-04-21T00:13:07;14.23;;;3.33;;
51006;SDS011;37034;47.886;-3.904;2023-04-21T00:15:33;11.75;;;3.05;;
51006;SDS011;37034;47.886;-3.904;2023-04-21T00:17:59;9.63;;;2.00;;
51006;SDS011;37034;47.886;-3.904;2023-04-21T00:20:25;14.13;;;2.70;;
51006;SDS011;37034;47.886;-3.904;2023-04-21T00:22:54;15.27;;;2.42;;
51006;SDS011;37034;47.886;-3.904;2023-04-21T00:25:20;15.07;;;2.55;;
51006;SDS011;37034;47.886;-3.904;2023-04-21T00:27:46;10.70;;;2.88;;
51006;SDS011;37034;47.886;-3.904;2023-04-21T00:30:12;15.80;;;3.47;;
51006;SDS011;37034;47.886;-3.904;2023-04-21T00:32:38;13.38;;;2.50;;
51006;SDS011;37034;47.886;-3.904;2023-04-21T00:35:03;15.80;;;3.20;;
51006;SDS011;37034;47.886;-3.904;2023-04-21T00:37:29;12.05;;;2.58;;
51006;SDS011;37034;47.886;-3.904;2023-04-21T00:39:55;14.97;;;2.40;;
51006;SDS011;37034;47.886;-3.904;2023-04-21T00:42:22;23.10;;;3.97;;
51006;SDS011;37034;47.886;-3.904;2023-04-21T00:44:48;15.63;;;2.95;;
51006;SDS011;37034;47.886;-3.904;2023-04-21T00:47:14;16.13;;;3.13;;
51006;SDS011;37034;47.886;-3.904;2023-04-21T00:49:40;16.10;;;3.53;;
51006;SDS011;37034;47.886;-3.904;2023-04-21T00:52:06;18.45;;;3.45;;
51006;SDS011;37034;47.886;-3.904;2023-04-21T00:54:34;14.05;;;3.10;;
51006;SDS011;37034;47.886;-3.904;2023-04-21T00:57:00;10.10;;;2.75;;
51006;SDS011;37034;47.886;-3.904;2023-04-21T00:59:28;14.10;;;3.03;;
51006;SDS011;37034;47.886;-3.904;2023-04-21T01:01:56;18.38;;;4.68;;
51006;SDS011;37034;47.886;-3.904;2023-04-21T01:04:22;18.23;;;3.53;;
51006;SDS011;37034;47.886;-3.904;2023-04-21T01:06:47;13.07;;;3.47;;
51006;SDS011;37034;47.886;-3.904;2023-04-21T01:09:13;13.50;;;3.00;;
51006;SDS011;37034;47.886;-3.904;2023-04-21T01:11:39;13.70;;;2.95;;
51006;SDS011;37034;47.886;-3.904;2023-04-21T01:14:05;13.47;;;3.07;;
51006;SDS011;37034;47.886;-3.904;2023-04-21T01:16:31;16.52;;;3.47;;
51006;SDS011;37034;47.886;-3.904;2023-04-21T01:18:57;16.50;;;3.80;;
51006;SDS011;37034;47.886;-3.904;2023-04-21T01:21:28;12.25;;;2.67;;
51006;SDS011;37034;47.886;-3.904;2023-04-21T01:24:02;11.00;;;3.20;;
51006;SDS011;37034;47.886;-3.904;2023-04-21T01:26:28;9.90;;;2.80;;
51006;SDS011;37034;47.886;-3.904;2023-04-21T01:28:55;16.57;;;3.80;;
51006;SDS011;37034;47.886;-3.904;2023-04-21T01:31:21;9.88;;;2.40;;
51006;SDS011;37034;47.886;-3.904;2023-04-21T01:36:13;9.73;;;2.55;;
51006;SDS011;37034;47.886;-3.904;2023-04-21T01:38:40;9.68;;;2.65;;
51006;SDS011;37034;47.886;-3.904;2023-04-21T01:41:06;9.95;;;2.58;;
51006;SDS011;37034;47.886;-3.904;2023-04-21T01:43:33;9.18;;;2.13;;
51006;SDS011;37034;47.886;-3.904;2023-04-21T01:45:59;12.20;;;2.92;;
51006;SDS011;37034;47.886;-3.904;2023-04-21T01:48:24;10.93;;;2.80;;
51006;SDS011;37034;47.886;-3.904;2023-04-21T01:50:50;10.47;;;2.20;;
51006;SDS011;37034;47.886;-3.904;2023-04-21T01:53:16;10.70;;;2.67;;
51006;SDS011;37034;47.886;-3.904;2023-04-21T01:55:41;9.37;;;2.60;;
51006;SDS011;37034;47.886;-3.904;2023-04-21T01:58:07;9.47;;;2.67;;
51006;SDS011;37034;47.886;-3.904;2023-04-21T02:00:32;10.43;;;3.00;;
51006;SDS011;37034;47.886;-3.904;2023-04-21T02:02:58;8.13;;;2.97;;
51006;SDS011;37034;47.886;-3.904;2023-04-21T02:05:24;9.53;;;1.57;;
51006;SDS011;37034;47.886;-3.904;2023-04-21T02:07:49;9.37;;;2.30;;
51006;SDS011;37034;47.886;-3.904;2023-04-21T02:10:15;11.67;;;2.37;;
51006;SDS011;37034;47.886;-3.904;2023-04-21T02:12:41;4.17;;;2.10;;
51006;SDS011;37034;47.886;-3.904;2023-04-21T02:15:06;18.07;;;3.23;;
51006;SDS011;37034;47.886;-3.904;2023-04-21T02:17:32;13.32;;;1.98;;
51006;SDS011;37034;47.886;-3.904;2023-04-21T02:19:58;9.17;;;1.90;;
51006;SDS011;37034;47.886;-3.904;2023-04-21T02:22:24;7.43;;;2.03;;
51006;SDS011;37034;47.886;-3.904;2023-04-21T02:24:49;10.00;;;3.00;;
51006;SDS011;37034;47.886;-3.904;2023-04-21T02:27:15;8.13;;;2.50;;
51006;SDS011;37034;47.886;-3.904;2023-04-21T02:29:41;13.03;;;2.30;;
51006;SDS011;37034;47.886;-3.904;2023-04-21T02:32:06;12.67;;;2.20;;
51006;SDS011;37034;47.886;-3.904;2023-04-21T02:34:32;11.52;;;2.75;;
51006;SDS011;37034;47.886;-3.904;2023-04-21T02:36:58;10.57;;;2.27;;
51006;SDS011;37034;47.886;-3.904;2023-04-21T02:39:24;14.80;;;3.13;;
51006;SDS011;37034;47.886;-3.904;2023-04-21T02:41:50;11.02;;;2.42;;
51006;SDS011;37034;47.886;-3.904;2023-04-21T02:44:16;13.95;;;2.58;;
51006;SDS011;37034;47.886;-3.904;2023-04-21T02:46:42;12.17;;;2.77;;
51006;SDS011;37034;47.886;-3.904;2023-04-21T02:49:08;10.00;;;2.53;;
51006;SDS011;37034;47.886;-3.904;2023-04-21T02:51:34;10.15;;;2.20;;
51006;SDS011;37034;47.886;-3.904;2023-04-21T02:54:00;7.80;;;2.40;;
51006;SDS011;37034;47.886;-3.904;2023-04-21T02:56:27;11.85;;;2.97;;
51006;SDS011;37034;47.886;-3.904;2023-04-21T02:58:52;16.90;;;2.97;;
51006;SDS011;37034;47.886;-3.904;2023-04-21T03:01:18;8.60;;;2.60;;
51006;SDS011;37034;47.886;-3.904;2023-04-21T03:03:43;11.17;;;2.50;;
51006;SDS011;37034;47.886;-3.904;2023-04-21T03:06:10;17.38;;;3.42;;
51006;SDS011;37034;47.886;-3.904;2023-04-21T03:08:35;10.03;;;2.63;;
51006;SDS011;37034;47.886;-3.904;2023-04-21T03:11:01;13.80;;;2.70;;
51006;SDS011;37034;47.886;-3.904;2023-04-21T03:13:26;14.60;;;2.87;;
51006;SDS011;37034;47.886;-3.904;2023-04-21T03:15:52;10.83;;;2.80;;
51006;SDS011;37034;47.886;-3.904;2023-04-21T03:18:18;11.03;;;2.20;;
51006;SDS011;37034;47.886;-3.904;2023-04-21T03:20:43;14.53;;;3.27;;
51006;SDS011;37034;47.886;-3.904;2023-04-21T03:23:09;13.20;;;2.83;;
51006;SDS011;37034;47.886;-3.904;2023-04-21T03:25:36;8.13;;;2.03;;
51006;SDS011;37034;47.886;-3.904;2023-04-21T03:28:02;13.98;;;3.10;;
51006;SDS011;37034;47.886;-3.904;2023-04-21T03:30:28;14.03;;;3.07;;
51006;SDS011;37034;47.886;-3.904;2023-04-21T03:32:54;9.57;;;3.10;;
51006;SDS011;37034;47.886;-3.904;2023-04-21T03:35:19;8.17;;;2.60;;
51006;SDS011;37034;47.886;-3.904;2023-04-21T03:37:45;13.80;;;2.65;;
51006;SDS011;37034;47.886;-3.904;2023-04-21T03:40:13;10.77;;;2.80;;
51006;SDS011;37034;47.886;-3.904;2023-04-21T03:42:39;12.32;;;2.58;;
51006;SDS011;37034;47.886;-3.904;2023-04-21T03:45:06;11.33;;;2.77;;
51006;SDS011;37034;47.886;-3.904;2023-04-21T03:47:32;7.68;;;2.70;;
51006;SDS011;37034;47.886;-3.904;2023-04-21T03:49:59;16.27;;;3.38;;
51006;SDS011;37034;47.886;-3.904;2023-04-21T03:52:25;8.00;;;1.87;;
51006;SDS011;37034;47.886;-3.904;2023-04-21T03:54:50;12.18;;;2.70;;
51006;SDS011;37034;47.886;-3.904;2023-04-21T03:57:16;14.03;;;3.33;;
51006;SDS011;37034;47.886;-3.904;2023-04-21T03:59:42;10.70;;;2.60;;
51006;SDS011;37034;47.886;-3.904;2023-04-21T04:02:08;12.50;;;3.13;;
51006;SDS011;37034;47.886;-3.904;2023-04-21T04:04:33;10.25;;;2.75;;
51006;SDS011;37034;47.886;-3.904;2023-04-21T04:07:00;12.50;;;2.85;;
51006;SDS011;37034;47.886;-3.904;2023-04-21T04:09:26;10.48;;;2.97;;
51006;SDS011;37034;47.886;-3.904;2023-04-21T04:11:52;12.47;;;2.80;;
51006;SDS011;37034;47.886;-3.904;2023-04-21T04:14:17;10.07;;;2.73;;
51006;SDS011;37034;47.886;-3.904;2023-04-21T04:16:43;13.53;;;2.63;;
51006;SDS011;37034;47.886;-3.904;2023-04-21T04:19:09;10.77;;;3.23;;
51006;SDS011;37034;47.886;-3.904;2023-04-21T04:21:34;13.73;;;3.08;;
51006;SDS011;37034;47.886;-3.904;2023-04-21T04:24:00;12.23;;;2.50;;
51006;SDS011;37034;47.886;-3.904;2023-04-21T04:26:29;8.25;;;2.53;;
51006;SDS011;37034;47.886;-3.904;2023-04-21T04:28:57;13.13;;;2.97;;
51006;SDS011;37034;47.886;-3.904;2023-04-21T04:31:26;12.40;;;2.72;;
51006;SDS011;37034;47.886;-3.904;2023-04-21T04:33:55;9.80;;;2.55;;
51006;SDS011;37034;47.886;-3.904;2023-04-21T04:36:21;14.32;;;2.95;;
51006;SDS011;37034;47.886;-3.904;2023-04-21T04:41:13;17.13;;;3.78;;
51006;SDS011;37034;47.886;-3.904;2023-04-21T04:43:40;7.93;;;2.17;;
51006;SDS011;37034;47.886;-3.904;2023-04-21T04:46:07;11.70;;;2.80;;
51006;SDS011;37034;47.886;-3.904;2023-04-21T04:48:37;10.45;;;2.17;;
51006;SDS011;37034;47.886;-3.904;2023-04-21T04:51:02;9.63;;;2.35;;
51006;SDS011;37034;47.886;-3.904;2023-04-21T04:53:28;16.63;;;3.20;;
51006;SDS011;37034;47.886;-3.904;2023-04-21T04:55:54;7.60;;;1.80;;
51006;SDS011;37034;47.886;-3.904;2023-04-21T04:58:21;8.30;;;2.53;;
51006;SDS011;37034;47.886;-3.904;2023-04-21T05:00:47;13.40;;;3.13;;
51006;SDS011;37034;47.886;-3.904;2023-04-21T05:03:12;12.57;;;3.10;;
51006;SDS011;37034;47.886;-3.904;2023-04-21T05:05:38;13.47;;;3.27;;
51006;SDS011;37034;47.886;-3.904;2023-04-21T05:08:04;7.70;;;2.17;;
51006;SDS011;37034;47.886;-3.904;2023-04-21T05:10:29;11.67;;;3.37;;
51006;SDS011;37034;47.886;-3.904;2023-04-21T05:12:55;11.67;;;3.43;;
51006;SDS011;37034;47.886;-3.904;2023-04-21T05:15:21;15.90;;;3.30;;
51006;SDS011;37034;47.886;-3.904;2023-04-21T05:17:47;9.07;;;2.50;;
51006;SDS011;37034;47.886;-3.904;2023-04-21T05:20:12;15.57;;;3.38;;
51006;SDS011;37034;47.886;-3.904;2023-04-21T05:22:38;15.13;;;4.43;;
51006;SDS011;37034;47.886;-3.904;2023-04-21T05:25:05;10.25;;;3.10;;
51006;SDS011;37034;47.886;-3.904;2023-04-21T05:27:31;10.63;;;2.85;;
51006;SDS011;37034;47.886;-3.904;2023-04-21T05:29:58;13.73;;;3.97;;
51006;SDS011;37034;47.886;-3.904;2023-04-21T05:32:24;13.13;;;2.67;;
51006;SDS011;37034;47.886;-3.904;2023-04-21T05:34:51;14.55;;;3.60;;
51006;SDS011;37034;47.886;-3.904;2023-04-21T05:37:17;12.17;;;3.27;;
51006;SDS011;37034;47.886;-3.904;2023-04-21T05:39:42;11.30;;;3.03;;
51006;SDS011;37034;47.886;-3.904;2023-04-21T05:42:08;11.20;;;3.33;;
51006;SDS011;37034;47.886;-3.904;2023-04-21T05:44:35;14.23;;;3.10;;
51006;SDS011;37034;47.886;-3.904;2023-04-21T05:47:01;13.68;;;3.75;;
51006;SDS011;37034;47.886;-3.904;2023-04-21T05:49:28;19.25;;;3.60;;
51006;SDS011;37034;47.886;-3.904;2023-04-21T05:51:54;9.13;;;2.57;;
51006;SDS011;37034;47.886;-3.904;2023-04-21T05:54:20;14.00;;;3.47;;
51006;SDS011;37034;47.886;-3.904;2023-04-21T05:56:45;15.87;;;3.23;;
51006;SDS011;37034;47.886;-3.904;2023-04-21T05:59:12;17.33;;;3.70;;
51006;SDS011;37034;47.886;-3.904;2023-04-21T06:01:38;14.63;;;2.87;;
51006;SDS011;37034;47.886;-3.904;2023-04-21T06:04:03;17.50;;;3.87;;
51006;SDS011;37034;47.886;-3.904;2023-04-21T06:06:29;12.55;;;3.83;;
51006;SDS011;37034;47.886;-3.904;2023-04-21T06:08:55;17.88;;;3.55;;
51006;SDS011;37034;47.886;-3.904;2023-04-21T06:11:21;20.63;;;3.63;;
51006;SDS011;37034;47.886;-3.904;2023-04-21T06:13:48;13.88;;;3.45;;
51006;SDS011;37034;47.886;-3.904;2023-04-21T06:16:14;9.32;;;3.40;;
51006;SDS011;37034;47.886;-3.904;2023-04-21T06:18:39;13.57;;;3.90;;
51006;SDS011;37034;47.886;-3.904;2023-04-21T06:21:05;15.23;;;3.53;;
51006;SDS011;37034;47.886;-3.904;2023-04-21T06:23:31;12.30;;;3.47;;
51006;SDS011;37034;47.886;-3.904;2023-04-21T06:26:03;8.30;;;2.60;;
51006;SDS011;37034;47.886;-3.904;2023-04-21T06:28:31;18.27;;;4.18;;
51006;SDS011;37034;47.886;-3.904;2023-04-21T06:30:57;13.77;;;3.92;;
51006;SDS011;37034;47.886;-3.904;2023-04-21T06:33:24;21.38;;;4.53;;
51006;SDS011;37034;47.886;-3.904;2023-04-21T06:38:16;22.00;;;5.25;;
51006;SDS011;37034;47.886;-3.904;2023-04-21T06:40:42;16.73;;;4.50;;
51006;SDS011;37034;47.886;-3.904;2023-04-21T06:43:08;18.30;;;5.05;;
51006;SDS011;37034;47.886;-3.904;2023-04-21T06:45:33;15.80;;;4.33;;
51006;SDS011;37034;47.886;-3.904;2023-04-21T06:47:59;20.37;;;5.13;;
51006;SDS011;37034;47.886;-3.904;2023-04-21T06:50:25;14.23;;;4.60;;
51006;SDS011;37034;47.886;-3.904;2023-04-21T06:52:51;20.80;;;5.50;;
51006;SDS011;37034;47.886;-3.904;2023-04-21T06:55:16;16.90;;;5.20;;
51006;SDS011;37034;47.886;-3.904;2023-04-21T06:57:42;17.87;;;5.37;;
51006;SDS011;37034;47.886;-3.904;2023-04-21T07:00:08;13.73;;;4.33;;
51006;SDS011;37034;47.886;-3.904;2023-04-21T07:02:34;15.80;;;6.40;;
51006;SDS011;37034;47.886;-3.904;2023-04-21T07:04:59;15.17;;;5.57;;
51006;SDS011;37034;47.886;-3.904;2023-04-21T07:07:25;16.70;;;6.43;;
51006;SDS011;37034;47.886;-3.904;2023-04-21T07:09:51;22.75;;;7.82;;
51006;SDS011;37034;47.886;-3.904;2023-04-21T07:12:17;15.03;;;6.83;;
51006;SDS011;37034;47.886;-3.904;2023-04-21T07:14:42;15.67;;;7.17;;
51006;SDS011;37034;47.886;-3.904;2023-04-21T07:17:08;19.87;;;8.10;;
51006;SDS011;37034;47.886;-3.904;2023-04-21T07:19:34;22.97;;;8.43;;
51006;SDS011;37034;47.886;-3.904;2023-04-21T07:21:59;19.03;;;9.03;;
51006;SDS011;37034;47.886;-3.904;2023-04-21T07:24:25;21.47;;;9.20;;
51006;SDS011;37034;47.886;-3.904;2023-04-21T07:26:50;19.87;;;8.97;;
51006;SDS011;37034;47.886;-3.904;2023-04-21T07:29:16;20.37;;;7.17;;
51006;SDS011;37034;47.886;-3.904;2023-04-21T07:31:42;24.37;;;10.13;;
51006;SDS011;37034;47.886;-3.904;2023-04-21T07:34:07;17.10;;;9.27;;
51006;SDS011;37034;47.886;-3.904;2023-04-21T07:36:33;18.47;;;9.20;;
51006;SDS011;37034;47.886;-3.904;2023-04-21T07:38:58;21.37;;;11.00;;
51006;SDS011;37034;47.886;-3.904;2023-04-21T07:41:24;20.60;;;11.10;;
51006;SDS011;37034;47.886;-3.904;2023-04-21T07:43:50;26.53;;;10.17;;
51006;SDS011;37034;47.886;-3.904;2023-04-21T07:46:16;25.27;;;11.20;;
51006;SDS011;37034;47.886;-3.904;2023-04-21T07:48:41;20.43;;;10.53;;
51006;SDS011;37034;47.886;-3.904;2023-04-21T07:51:07;18.93;;;10.63;;
51006;SDS011;37034;47.886;-3.904;2023-04-21T07:53:32;22.60;;;11.27;;
51006;SDS011;37034;47.886;-3.904;2023-04-21T07:55:58;22.20;;;10.80;;
51006;SDS011;37034;47.886;-3.904;2023-04-21T07:58:24;19.80;;;10.90;;
51006;SDS011;37034;47.886;-3.904;2023-04-21T08:00:49;21.67;;;9.90;;
51006;SDS011;37034;47.886;-3.904;2023-04-21T08:03:15;23.33;;;10.83;;
51006;SDS011;37034;47.886;-3.904;2023-04-21T08:05:41;22.60;;;11.27;;
51006;SDS011;37034;47.886;-3.904;2023-04-21T08:08:06;22.13;;;11.80;;
51006;SDS011;37034;47.886;-3.904;2023-04-21T08:10:33;21.15;;;10.60;;
51006;SDS011;37034;47.886;-3.904;2023-04-21T08:12:59;21.92;;;10.80;;
51006;SDS011;37034;47.886;-3.904;2023-04-21T08:15:26;20.23;;;10.40;;
51006;SDS011;37034;47.886;-3.904;2023-04-21T08:17:52;17.07;;;10.73;;
51006;SDS011;37034;47.886;-3.904;2023-04-21T08:20:18;17.52;;;11.27;;
51006;SDS011;37034;47.886;-3.904;2023-04-21T08:22:44;17.30;;;11.67;;
51006;SDS011;37034;47.886;-3.904;2023-04-21T08:25:10;15.32;;;10.30;;
51006;SDS011;37034;47.886;-3.904;2023-04-21T08:27:38;17.97;;;10.80;;
51006;SDS011;37034;47.886;-3.904;2023-04-21T08:30:04;17.10;;;10.82;;
51006;SDS011;37034;47.886;-3.904;2023-04-21T08:32:31;15.32;;;10.45;;
51006;SDS011;37034;47.886;-3.904;2023-04-21T08:34:56;20.97;;;10.67;;
51006;SDS011;37034;47.886;-3.904;2023-04-21T08:37:22;18.00;;;10.93;;
51006;SDS011;37034;47.886;-3.904;2023-04-21T08:39:48;18.20;;;10.13;;
51006;SDS011;37034;47.886;-3.904;2023-04-21T08:42:17;16.85;;;11.02;;
51006;SDS011;37034;47.886;-3.904;2023-04-21T08:44:43;17.70;;;11.32;;
51006;SDS011;37034;47.886;-3.904;2023-04-21T08:47:09;14.48;;;9.52;;
51006;SDS011;37034;47.886;-3.904;2023-04-21T08:52:02;17.27;;;10.05;;
51006;SDS011;37034;47.886;-3.904;2023-04-21T08:54:27;22.85;;;11.10;;
51006;SDS011;37034;47.886;-3.904;2023-04-21T08:56:53;18.70;;;10.73;;
51006;SDS011;37034;47.886;-3.904;2023-04-21T08:59:19;16.03;;;10.53;;
51006;SDS011;37034;47.886;-3.904;2023-04-21T09:04:37;17.33;;;11.15;;
51006;SDS011;37034;47.886;-3.904;2023-04-21T09:07:04;15.63;;;11.10;;
51006;SDS011;37034;47.886;-3.904;2023-04-21T09:09:30;13.00;;;7.75;;
51006;SDS011;37034;47.886;-3.904;2023-04-21T09:11:56;12.40;;;9.53;;
51006;SDS011;37034;47.886;-3.904;2023-04-21T09:14:31;16.33;;;10.45;;
51006;SDS011;37034;47.886;-3.904;2023-04-21T09:17:01;16.08;;;9.43;;
51006;SDS011;37034;47.886;-3.904;2023-04-21T09:19:28;15.13;;;10.30;;
51006;SDS011;37034;47.886;-3.904;2023-04-21T09:21:57;13.50;;;10.38;;
51006;SDS011;37034;47.886;-3.904;2023-04-21T09:24:25;18.08;;;9.90;;
51006;SDS011;37034;47.886;-3.904;2023-04-21T09:26:51;14.00;;;10.07;;
51006;SDS011;37034;47.886;-3.904;2023-04-21T09:29:20;15.60;;;10.45;;
51006;SDS011;37034;47.886;-3.904;2023-04-21T09:31:49;16.35;;;10.55;;
51006;SDS011;37034;47.886;-3.904;2023-04-21T09:36:47;19.85;;;10.13;;
51006;SDS011;37034;47.886;-3.904;2023-04-21T09:39:12;16.17;;;10.53;;
51006;SDS011;37034;47.886;-3.904;2023-04-21T09:41:38;18.27;;;10.80;;
51006;SDS011;37034;47.886;-3.904;2023-04-21T09:44:04;17.10;;;11.15;;
51006;SDS011;37034;47.886;-3.904;2023-04-21T09:46:33;15.63;;;11.07;;
51006;SDS011;37034;47.886;-3.904;2023-04-21T09:49:00;14.20;;;10.15;;
51006;SDS011;37034;47.886;-3.904;2023-04-21T09:51:26;16.48;;;9.82;;
51006;SDS011;37034;47.886;-3.904;2023-04-21T09:53:58;13.52;;;10.15;;
51006;SDS011;37034;47.886;-3.904;2023-04-21T09:56:28;13.88;;;10.55;;
51006;SDS011;37034;47.886;-3.904;2023-04-21T09:58:57;13.30;;;9.80;;
51006;SDS011;37034;47.886;-3.904;2023-04-21T10:01:26;18.42;;;9.90;;
51006;SDS011;37034;47.886;-3.904;2023-04-21T10:03:54;17.77;;;10.63;;
51006;SDS011;37034;47.886;-3.904;2023-04-21T10:06:21;17.88;;;11.18;;
51006;SDS011;37034;47.886;-3.904;2023-04-21T10:08:48;13.60;;;10.18;;
51006;SDS011;37034;47.886;-3.904;2023-04-21T10:11:14;13.68;;;9.15;;
51006;SDS011;37034;47.886;-3.904;2023-04-21T10:13:42;15.68;;;10.80;;
51006;SDS011;37034;47.886;-3.904;2023-04-21T10:16:08;17.52;;;10.48;;
51006;SDS011;37034;47.886;-3.904;2023-04-21T10:18:37;11.75;;;9.25;;
51006;SDS011;37034;47.886;-3.904;2023-04-21T10:21:07;13.70;;;9.75;;
51006;SDS011;37034;47.886;-3.904;2023-04-21T10:23:42;12.55;;;9.57;;
51006;SDS011;37034;47.886;-3.904;2023-04-21T10:26:13;14.63;;;10.30;;
51006;SDS011;37034;47.886;-3.904;2023-04-21T10:42:19;14.55;;;9.82;;
51006;SDS011;37034;47.886;-3.904;2023-04-21T10:47:25;14.45;;;9.25;;
51006;SDS011;37034;47.886;-3.904;2023-04-21T10:50:12;14.82;;;8.35;;
51006;SDS011;37034;47.886;-3.904;2023-04-21T10:52:46;13.05;;;8.20;;
51006;SDS011;37034;47.886;-3.904;2023-04-21T10:55:20;12.40;;;8.50;;
51006;SDS011;37034;47.886;-3.904;2023-04-21T10:57:46;11.25;;;8.95;;
51006;SDS011;37034;47.886;-3.904;2023-04-21T11:00:18;11.65;;;8.25;;
51006;SDS011;37034;47.886;-3.904;2023-04-21T11:02:56;11.60;;;7.43;;
51006;SDS011;37034;47.886;-3.904;2023-04-21T11:05:36;13.38;;;7.82;;
51006;SDS011;37034;47.886;-3.904;2023-04-21T11:10:40;10.27;;;7.70;;
51006;SDS011;37034;47.886;-3.904;2023-04-21T11:13:10;10.25;;;7.07;;
51006;SDS011;37034;47.886;-3.904;2023-04-21T11:15:36;12.70;;;7.82;;
51006;SDS011;37034;47.886;-3.904;2023-04-21T11:18:01;11.40;;;8.20;;
51006;SDS011;37034;47.886;-3.904;2023-04-21T11:20:27;11.02;;;8.32;;
51006;SDS011;37034;47.886;-3.904;2023-04-21T11:22:55;10.48;;;7.93;;
51006;SDS011;37034;47.886;-3.904;2023-04-21T11:25:20;10.98;;;8.10;;
51006;SDS011;37034;47.886;-3.904;2023-04-21T11:27:53;11.55;;;8.35;;
51006;SDS011;37034;47.886;-3.904;2023-04-21T11:30:20;11.63;;;8.15;;
51006;SDS011;37034;47.886;-3.904;2023-04-21T11:32:55;9.85;;;7.50;;
51006;SDS011;37034;47.886;-3.904;2023-04-21T11:35:21;9.97;;;6.93;;
51006;SDS011;37034;47.886;-3.904;2023-04-21T11:37:48;9.80;;;7.40;;
51006;SDS011;37034;47.886;-3.904;2023-04-21T11:40:16;12.43;;;7.45;;
51006;SDS011;37034;47.886;-3.904;2023-04-21T11:42:42;11.50;;;7.40;;
51006;SDS011;37034;47.886;-3.904;2023-04-21T11:47:40;10.60;;;7.03;;
51006;SDS011;37034;47.886;-3.904;2023-04-21T11:50:06;10.27;;;7.50;;
51006;SDS011;37034;47.886;-3.904;2023-04-21T11:52:33;10.55;;;7.45;;
51006;SDS011;37034;47.886;-3.904;2023-04-21T11:57:29;9.73;;;7.35;;
51006;SDS011;37034;47.886;-3.904;2023-04-21T12:00:02;12.10;;;7.65;;
51006;SDS011;37034;47.886;-3.904;2023-04-21T12:02:30;10.38;;;7.18;;
51006;SDS011;37034;47.886;-3.904;2023-04-21T12:04:57;11.52;;;7.75;;
51006;SDS011;37034;47.886;-3.904;2023-04-21T12:07:31;12.20;;;7.80;;
51006;SDS011;37034;47.886;-3.904;2023-04-21T12:09:59;15.88;;;8.65;;
51006;SDS011;37034;47.886;-3.904;2023-04-21T12:12:25;17.05;;;9.05;;
51006;SDS011;37034;47.886;-3.904;2023-04-21T12:14:51;12.30;;;8.10;;
51006;SDS011;37034;47.886;-3.904;2023-04-21T12:17:17;15.85;;;9.00;;
51006;SDS011;37034;47.886;-3.904;2023-04-21T12:19:43;13.95;;;9.20;;
51006;SDS011;37034;47.886;-3.904;2023-04-21T12:22:12;10.90;;;8.18;;
51006;SDS011;37034;47.886;-3.904;2023-04-21T12:24:42;12.43;;;8.30;;
51006;SDS011;37034;47.886;-3.904;2023-04-21T12:29:35;10.88;;;8.25;;
51006;SDS011;37034;47.886;-3.904;2023-04-21T12:32:02;12.30;;;7.75;;
51006;SDS011;37034;47.886;-3.904;2023-04-21T12:34:29;13.85;;;8.35;;
51006;SDS011;37034;47.886;-3.904;2023-04-21T12:36:54;15.10;;;8.23;;
51006;SDS011;37034;47.886;-3.904;2023-04-21T12:39:20;15.98;;;8.50;;
51006;SDS011;37034;47.886;-3.904;2023-04-21T12:41:46;14.10;;;9.13;;
51006;SDS011;37034;47.886;-3.904;2023-04-21T12:44:12;12.05;;;9.02;;
51006;SDS011;37034;47.886;-3.904;2023-04-21T12:46:39;11.50;;;8.63;;
51006;SDS011;37034;47.886;-3.904;2023-04-21T12:51:31;14.77;;;8.98;;
51006;SDS011;37034;47.886;-3.904;2023-04-21T12:53:58;12.68;;;8.55;;
51006;SDS011;37034;47.886;-3.904;2023-04-21T12:56:23;12.02;;;8.43;;
51006;SDS011;37034;47.886;-3.904;2023-04-21T13:01:15;11.50;;;8.25;;
51006;SDS011;37034;47.886;-3.904;2023-04-21T13:03:41;15.70;;;8.20;;
51006;SDS011;37034;47.886;-3.904;2023-04-21T13:06:07;12.13;;;7.97;;
51006;SDS011;37034;47.886;-3.904;2023-04-21T13:08:34;12.82;;;8.23;;
51006;SDS011;37034;47.886;-3.904;2023-04-21T13:11:00;13.30;;;9.32;;
51006;SDS011;37034;47.886;-3.904;2023-04-21T13:13:26;14.75;;;9.20;;
51006;SDS011;37034;47.886;-3.904;2023-04-21T13:15:52;15.80;;;9.13;;
51006;SDS011;37034;47.886;-3.904;2023-04-21T13:18:18;14.75;;;7.80;;
51006;SDS011;37034;47.886;-3.904;2023-04-21T13:20:44;14.05;;;7.60;;
51006;SDS011;37034;47.886;-3.904;2023-04-21T13:23:10;10.43;;;6.97;;
51006;SDS011;37034;47.886;-3.904;2023-04-21T13:25:38;13.90;;;6.90;;
51006;SDS011;37034;47.886;-3.904;2023-04-21T13:28:04;10.45;;;6.35;;
51006;SDS011;37034;47.886;-3.904;2023-04-21T13:30:31;12.20;;;5.68;;
51006;SDS011;37034;47.886;-3.904;2023-04-21T13:32:57;8.40;;;5.28;;
51006;SDS011;37034;47.886;-3.904;2023-04-21T13:35:23;12.40;;;6.95;;
51006;SDS011;37034;47.886;-3.904;2023-04-21T13:37:49;12.95;;;6.20;;
51006;SDS011;37034;47.886;-3.904;2023-04-21T13:40:15;11.32;;;6.57;;
51006;SDS011;37034;47.886;-3.904;2023-04-21T13:42:41;9.75;;;7.30;;
51006;SDS011;37034;47.886;-3.904;2023-04-21T13:45:07;12.30;;;5.53;;
51006;SDS011;37034;47.886;-3.904;2023-04-21T13:47:33;14.55;;;6.10;;
51006;SDS011;37034;47.886;-3.904;2023-04-21T13:49:59;11.47;;;5.83;;
51006;SDS011;37034;47.886;-3.904;2023-04-21T13:52:25;13.50;;;5.93;;
51006;SDS011;37034;47.886;-3.904;2023-04-21T13:54:51;12.02;;;6.72;;
51006;SDS011;37034;47.886;-3.904;2023-04-21T13:57:18;12.90;;;5.90;;
51006;SDS011;37034;47.886;-3.904;2023-04-21T13:59:44;12.90;;;6.25;;
51006;SDS011;37034;47.886;-3.904;2023-04-21T14:02:10;11.90;;;6.15;;
51006;SDS011;37034;47.886;-3.904;2023-04-21T14:04:36;10.07;;;5.57;;
51006;SDS011;37034;47.886;-3.904;2023-04-21T14:07:02;11.07;;;6.15;;
51006;SDS011;37034;47.886;-3.904;2023-04-21T14:09:29;9.32;;;5.78;;
51006;SDS011;37034;47.886;-3.904;2023-04-21T14:11:55;13.68;;;6.20;;
51006;SDS011;37034;47.886;-3.904;2023-04-21T14:14:21;10.15;;;6.80;;
51006;SDS011;37034;47.886;-3.904;2023-04-21T14:16:46;14.25;;;6.00;;
51006;SDS011;37034;47.886;-3.904;2023-04-21T14:19:13;14.73;;;5.93;;
51006;SDS011;37034;47.886;-3.904;2023-04-21T14:21:42;10.77;;;6.05;;
51006;SDS011;37034;47.886;-3.904;2023-04-21T14:24:08;12.17;;;6.47;;
51006;SDS011;37034;47.886;-3.904;2023-04-21T14:26:34;10.35;;;6.03;;
51006;SDS011;37034;47.886;-3.904;2023-04-21T14:29:00;12.68;;;6.47;;
51006;SDS011;37034;47.886;-3.904;2023-04-21T14:31:29;11.43;;;6.40;;
51006;SDS011;37034;47.886;-3.904;2023-04-21T14:33:54;12.02;;;6.78;;
51006;SDS011;37034;47.886;-3.904;2023-04-21T14:36:20;11.93;;;5.93;;
51006;SDS011;37034;47.886;-3.904;2023-04-21T14:38:46;12.77;;;6.60;;
51006;SDS011;37034;47.886;-3.904;2023-04-21T14:41:12;12.52;;;6.95;;
51006;SDS011;37034;47.886;-3.904;2023-04-21T14:43:37;13.05;;;5.85;;
51006;SDS011;37034;47.886;-3.904;2023-04-21T14:46:03;10.18;;;6.20;;
51006;SDS011;37034;47.886;-3.904;2023-04-21T14:48:29;12.60;;;6.78;;
51006;SDS011;37034;47.886;-3.904;2023-04-21T14:50:56;10.27;;;6.22;;
51006;SDS011;37034;47.886;-3.904;2023-04-21T14:53:22;12.75;;;6.20;;
51006;SDS011;37034;47.886;-3.904;2023-04-21T14:55:48;10.68;;;6.05;;
51006;SDS011;37034;47.886;-3.904;2023-04-21T14:58:14;13.77;;;6.97;;
51006;SDS011;37034;47.886;-3.904;2023-04-21T15:00:40;11.35;;;6.65;;
51006;SDS011;37034;47.886;-3.904;2023-04-21T15:03:06;10.95;;;6.13;;
51006;SDS011;37034;47.886;-3.904;2023-04-21T15:05:32;13.48;;;7.40;;